sensor_id;sensor_type;location;lat;lon;timestamp;pressure;altitude;pressure_sealevel;temperature;humidity
64668;BME280;51077;42.716;23.344;2022-12-07T00:01:06;95382.13;;;8.01;62.89
64668;BME280;51077;42.716;23.344;2022-12-07T00:03:33;95379.88;;;8.00;63.20
64668;BME280;51077;42.716;23.344;2022-12-07T00:05:59;95376.41;;;7.99;63.05
64668;BME280;51077;42.716;23.344;2022-12-07T00:08:25;95381.84;;;7.99;62.92
64668;BME280;51077;42.716;23.344;2022-12-07T00:10:51;95372.41;;;8.00;63.13
64668;BME280;51077;42.716;23.344;2022-12-07T00:13:16;95370.94;;;7.99;63.06
64668;BME280;51077;42.716;23.344;2022-12-07T00:15:42;95373.66;;;7.99;63.00
64668;BME280;51077;42.716;23.344;2022-12-07T00:18:07;95365.47;;;7.99;62.79
64668;BME280;51077;42.716;23.344;2022-12-07T00:20:32;95372.91;;;7.99;62.78
64668;BME280;51077;42.716;23.344;2022-12-07T00:22:59;95381.84;;;7.99;62.92
64668;BME280;51077;42.716;23.344;2022-12-07T00:25:24;95364.22;;;8.00;63.02
64668;BME280;51077;42.716;23.344;2022-12-07T00:27:50;95361.25;;;7.98;62.96
64668;BME280;51077;42.716;23.344;2022-12-07T00:30:15;95381.84;;;7.99;62.85
64668;BME280;51077;42.716;23.344;2022-12-07T00:32:41;95377.88;;;8.00;62.92
64668;BME280;51077;42.716;23.344;2022-12-07T00:35:06;95386.09;;;8.00;62.78
64668;BME280;51077;42.716;23.344;2022-12-07T00:37:32;95380.63;;;8.00;62.89
64668;BME280;51077;42.716;23.344;2022-12-07T00:39:57;95379.88;;;8.00;62.72
64668;BME280;51077;42.716;23.344;2022-12-07T00:42:23;95384.59;;;7.99;62.74
64668;BME280;51077;42.716;23.344;2022-12-07T00:44:48;95380.13;;;8.02;63.02
64668;BME280;51077;42.716;23.344;2022-12-07T00:47:13;95371.94;;;8.02;63.10
64668;BME280;51077;42.716;23.344;2022-12-07T00:49:39;95373.44;;;8.03;62.92
64668;BME280;51077;42.716;23.344;2022-12-07T00:52:04;95361.75;;;8.02;63.04
64668;BME280;51077;42.716;23.344;2022-12-07T00:54:30;95365.22;;;8.03;62.79
64668;BME280;51077;42.716;23.344;2022-12-07T00:56:55;95367.22;;;8.02;62.82
64668;BME280;51077;42.716;23.344;2022-12-07T00:59:21;95360.50;;;8.03;62.78
64668;BME280;51077;42.716;23.344;2022-12-07T01:01:46;95360.50;;;8.03;62.75
64668;BME280;51077;42.716;23.344;2022-12-07T01:04:11;95359.25;;;8.04;62.66
64668;BME280;51077;42.716;23.344;2022-12-07T01:06:38;95360.50;;;8.03;62.93
64668;BME280;51077;42.716;23.344;2022-12-07T01:09:03;95363.97;;;8.04;62.61
64668;BME280;51077;42.716;23.344;2022-12-07T01:11:30;95368.69;;;8.03;62.75
64668;BME280;51077;42.716;23.344;2022-12-07T01:13:57;95368.97;;;8.05;62.70
64668;BME280;51077;42.716;23.344;2022-12-07T01:16:26;95365.47;;;8.05;63.18
64668;BME280;51077;42.716;23.344;2022-12-07T01:18:54;95355.31;;;8.05;62.97
64668;BME280;51077;42.716;23.344;2022-12-07T01:21:25;95356.06;;;8.06;62.94
64668;BME280;51077;42.716;23.344;2022-12-07T01:23:51;95354.81;;;8.07;62.97
64668;BME280;51077;42.716;23.344;2022-12-07T01:26:19;95356.28;;;8.08;62.97
64668;BME280;51077;42.716;23.344;2022-12-07T01:28:45;95352.81;;;8.07;62.81
64668;BME280;51077;42.716;23.344;2022-12-07T01:31:13;95352.81;;;8.07;62.82
64668;BME280;51077;42.716;23.344;2022-12-07T01:33:40;95343.38;;;8.09;62.74
64668;BME280;51077;42.716;23.344;2022-12-07T01:36:19;95348.84;;;8.09;62.82
64668;BME280;51077;42.716;23.344;2022-12-07T01:38:46;95341.88;;;8.07;62.91
64668;BME280;51077;42.716;23.344;2022-12-07T01:41:12;95348.09;;;8.08;62.74
64668;BME280;51077;42.716;23.344;2022-12-07T01:46:32;95341.66;;;8.05;62.84
64668;BME280;51077;42.716;23.344;2022-12-07T01:48:58;95345.88;;;8.06;62.86
64668;BME280;51077;42.716;23.344;2022-12-07T01:51:25;95344.38;;;8.05;62.69
64668;BME280;51077;42.716;23.344;2022-12-07T01:53:50;95342.84;;;8.04;62.63
64668;BME280;51077;42.716;23.344;2022-12-07T01:56:19;95333.69;;;8.02;62.99
64668;BME280;51077;42.716;23.344;2022-12-07T01:58:45;95327.47;;;8.01;63.07
64668;BME280;51077;42.716;23.344;2022-12-07T02:01:11;95330.66;;;8.00;63.21
64668;BME280;51077;42.716;23.344;2022-12-07T02:03:42;95332.94;;;8.01;62.73
64668;BME280;51077;42.716;23.344;2022-12-07T02:06:10;95332.94;;;8.01;63.08
64668;BME280;51077;42.716;23.344;2022-12-07T02:08:37;95331.41;;;8.00;62.69
64668;BME280;51077;42.716;23.344;2022-12-07T02:11:04;95335.66;;;8.01;62.71
64668;BME280;51077;42.716;23.344;2022-12-07T02:13:32;95333.69;;;8.02;63.08
64668;BME280;51077;42.716;23.344;2022-12-07T02:24:15;95329.69;;;8.03;62.91
64668;BME280;51077;42.716;23.344;2022-12-07T02:30:07;95323.47;;;8.02;63.05
64668;BME280;51077;42.716;23.344;2022-12-07T02:32:48;95314.78;;;8.04;62.94
64668;BME280;51077;42.716;23.344;2022-12-07T02:40:39;95307.09;;;8.02;62.99
64668;BME280;51077;42.716;23.344;2022-12-07T02:43:08;95315.03;;;8.00;63.10
64668;BME280;51077;42.716;23.344;2022-12-07T02:45:38;95312.78;;;7.99;62.85
64668;BME280;51077;42.716;23.344;2022-12-07T02:48:05;95316.78;;;7.98;62.87
64668;BME280;51077;42.716;23.344;2022-12-07T02:50:32;95311.03;;;7.96;63.10
64668;BME280;51077;42.716;23.344;2022-12-07T02:52:57;95310.28;;;7.95;63.05
64668;BME280;51077;42.716;23.344;2022-12-07T02:55:29;95308.81;;;7.94;62.97
64668;BME280;51077;42.716;23.344;2022-12-07T02:58:09;95310.53;;;7.92;63.06
64668;BME280;51077;42.716;23.344;2022-12-07T03:00:48;95312.28;;;7.89;63.15
64668;BME280;51077;42.716;23.344;2022-12-07T03:03:17;95308.06;;;7.88;62.97
64668;BME280;51077;42.716;23.344;2022-12-07T03:05:57;95303.06;;;7.87;63.20
64668;BME280;51077;42.716;23.344;2022-12-07T03:11:14;95297.84;;;7.83;63.32
64668;BME280;51077;42.716;23.344;2022-12-07T03:13:49;95298.34;;;7.81;63.20
64668;BME280;51077;42.716;23.344;2022-12-07T03:16:25;95294.59;;;7.79;63.82
64668;BME280;51077;42.716;23.344;2022-12-07T03:18:56;95296.34;;;7.76;63.77
64668;BME280;51077;42.716;23.344;2022-12-07T03:21:47;95294.09;;;7.75;63.70
64668;BME280;51077;42.716;23.344;2022-12-07T03:24:24;95289.13;;;7.73;63.55
64668;BME280;51077;42.716;23.344;2022-12-07T03:26:57;95292.06;;;7.70;63.95
64668;BME280;51077;42.716;23.344;2022-12-07T03:29:40;95289.09;;;7.68;64.01
64668;BME280;51077;42.716;23.344;2022-12-07T03:32:40;95293.09;;;7.67;63.93
64668;BME280;51077;42.716;23.344;2022-12-07T03:35:17;95300.53;;;7.66;63.77
64668;BME280;51077;42.716;23.344;2022-12-07T03:40:39;95302.25;;;7.64;64.12
64668;BME280;51077;42.716;23.344;2022-12-07T03:43:07;95304.97;;;7.64;63.64
64668;BME280;51077;42.716;23.344;2022-12-07T03:45:40;95300.75;;;7.63;63.93
64668;BME280;51077;42.716;23.344;2022-12-07T03:50:59;95295.03;;;7.61;63.77
64668;BME280;51077;42.716;23.344;2022-12-07T03:53:37;95300.50;;;7.61;64.08
64668;BME280;51077;42.716;23.344;2022-12-07T03:56:05;95297.53;;;7.59;64.09
64668;BME280;51077;42.716;23.344;2022-12-07T03:58:33;95294.78;;;7.59;64.02
64668;BME280;51077;42.716;23.344;2022-12-07T04:00:59;95289.31;;;7.59;63.72
64668;BME280;51077;42.716;23.344;2022-12-07T04:03:24;95290.56;;;7.58;63.82
64668;BME280;51077;42.716;23.344;2022-12-07T04:05:50;95289.06;;;7.56;63.98
64668;BME280;51077;42.716;23.344;2022-12-07T04:08:15;95291.78;;;7.56;64.12
64668;BME280;51077;42.716;23.344;2022-12-07T04:10:41;95282.09;;;7.55;64.13
64668;BME280;51077;42.716;23.344;2022-12-07T04:13:06;95285.34;;;7.54;64.10
64668;BME280;51077;42.716;23.344;2022-12-07T04:15:31;95277.16;;;7.54;64.03
64668;BME280;51077;42.716;23.344;2022-12-07T04:17:57;95285.81;;;7.52;64.02
64668;BME280;51077;42.716;23.344;2022-12-07T04:20:22;95283.81;;;7.53;64.96
64668;BME280;51077;42.716;23.344;2022-12-07T04:22:48;95281.38;;;7.55;66.03
64668;BME280;51077;42.716;23.344;2022-12-07T04:25:13;95286.31;;;7.56;67.20
64668;BME280;51077;42.716;23.344;2022-12-07T04:27:39;95289.09;;;7.62;68.93
64668;BME280;51077;42.716;23.344;2022-12-07T04:30:05;95292.34;;;7.66;69.42
64668;BME280;51077;42.716;23.344;2022-12-07T04:32:30;95286.63;;;7.70;69.93
64668;BME280;51077;42.716;23.344;2022-12-07T04:34:55;95294.06;;;7.69;69.79
64668;BME280;51077;42.716;23.344;2022-12-07T04:37:21;95292.59;;;7.68;69.84
64668;BME280;51077;42.716;23.344;2022-12-07T04:39:47;95286.16;;;7.71;69.62
64668;BME280;51077;42.716;23.344;2022-12-07T04:42:12;95292.34;;;7.72;70.09
64668;BME280;51077;42.716;23.344;2022-12-07T04:44:38;95295.09;;;7.72;70.32
64668;BME280;51077;42.716;23.344;2022-12-07T04:47:04;95291.34;;;7.69;69.89
64668;BME280;51077;42.716;23.344;2022-12-07T04:49:29;95299.75;;;7.66;70.04
64668;BME280;51077;42.716;23.344;2022-12-07T04:51:55;95300.25;;;7.64;69.97
64668;BME280;51077;42.716;23.344;2022-12-07T04:54:21;95303.97;;;7.61;69.72
64668;BME280;51077;42.716;23.344;2022-12-07T04:56:46;95298.00;;;7.57;69.28
64668;BME280;51077;42.716;23.344;2022-12-07T04:59:13;95303.97;;;7.55;69.21
64668;BME280;51077;42.716;23.344;2022-12-07T05:01:39;95296.00;;;7.52;69.03
64668;BME280;51077;42.716;23.344;2022-12-07T05:04:05;95290.75;;;7.48;69.28
64668;BME280;51077;42.716;23.344;2022-12-07T05:06:30;95294.00;;;7.47;69.12
64668;BME280;51077;42.716;23.344;2022-12-07T05:08:56;95294.97;;;7.44;69.30
64668;BME280;51077;42.716;23.344;2022-12-07T05:11:21;95299.44;;;7.41;68.96
64668;BME280;51077;42.716;23.344;2022-12-07T05:14:10;95303.88;;;7.39;68.95
64668;BME280;51077;42.716;23.344;2022-12-07T05:16:36;95302.88;;;7.36;68.98
64668;BME280;51077;42.716;23.344;2022-12-07T05:19:03;95293.69;;;7.34;68.82
64668;BME280;51077;42.716;23.344;2022-12-07T05:21:28;95285.25;;;7.32;68.75
64668;BME280;51077;42.716;23.344;2022-12-07T05:23:54;95293.91;;;7.30;68.77
64668;BME280;51077;42.716;23.344;2022-12-07T05:26:19;95295.16;;;7.29;68.56
64668;BME280;51077;42.716;23.344;2022-12-07T05:28:44;95304.31;;;7.26;68.33
64668;BME280;51077;42.716;23.344;2022-12-07T05:31:10;95302.09;;;7.24;68.37
64668;BME280;51077;42.716;23.344;2022-12-07T05:33:35;95301.34;;;7.24;68.15
64668;BME280;51077;42.716;23.344;2022-12-07T05:36:01;95295.88;;;7.24;68.34
64668;BME280;51077;42.716;23.344;2022-12-07T05:38:33;95301.06;;;7.22;68.33
64668;BME280;51077;42.716;23.344;2022-12-07T05:41:03;95292.63;;;7.20;68.15
64668;BME280;51077;42.716;23.344;2022-12-07T05:43:30;95303.53;;;7.20;68.08
64668;BME280;51077;42.716;23.344;2022-12-07T05:45:55;95298.09;;;7.20;68.16
64668;BME280;51077;42.716;23.344;2022-12-07T05:48:21;95298.84;;;7.20;68.02
64668;BME280;51077;42.716;23.344;2022-12-07T05:50:50;95298.34;;;7.22;67.57
64668;BME280;51077;42.716;23.344;2022-12-07T05:53:17;95290.63;;;7.20;67.56
64668;BME280;51077;42.716;23.344;2022-12-07T05:55:43;95287.41;;;7.22;67.62
64668;BME280;51077;42.716;23.344;2022-12-07T05:58:09;95288.94;;;7.23;67.52
64668;BME280;51077;42.716;23.344;2022-12-07T06:00:56;95280.75;;;7.23;67.74
64668;BME280;51077;42.716;23.344;2022-12-07T06:03:22;95285.69;;;7.24;67.50
64668;BME280;51077;42.716;23.344;2022-12-07T06:05:47;95282.97;;;7.24;67.23
64668;BME280;51077;42.716;23.344;2022-12-07T06:08:13;95289.41;;;7.27;67.27
64668;BME280;51077;42.716;23.344;2022-12-07T06:10:40;95285.47;;;7.28;67.35
64668;BME280;51077;42.716;23.344;2022-12-07T06:13:05;95290.44;;;7.29;67.10
64668;BME280;51077;42.716;23.344;2022-12-07T06:15:30;95291.19;;;7.30;66.96
64668;BME280;51077;42.716;23.344;2022-12-07T06:17:56;95298.13;;;7.31;66.77
64668;BME280;51077;42.716;23.344;2022-12-07T06:20:21;95286.72;;;7.33;66.57
64668;BME280;51077;42.716;23.344;2022-12-07T06:22:46;95288.97;;;7.34;66.41
64668;BME280;51077;42.716;23.344;2022-12-07T06:25:12;95288.75;;;7.38;66.52
64668;BME280;51077;42.716;23.344;2022-12-07T06:27:37;95288.25;;;7.39;66.25
64668;BME280;51077;42.716;23.344;2022-12-07T06:30:03;95299.44;;;7.41;66.51
64668;BME280;51077;42.716;23.344;2022-12-07T06:32:32;95300.41;;;7.44;66.21
64668;BME280;51077;42.716;23.344;2022-12-07T06:34:58;95295.47;;;7.48;66.30
64668;BME280;51077;42.716;23.344;2022-12-07T06:37:24;95302.69;;;7.51;66.04
64668;BME280;51077;42.716;23.344;2022-12-07T06:39:49;95309.16;;;7.53;65.75
64668;BME280;51077;42.716;23.344;2022-12-07T06:42:14;95316.63;;;7.59;65.94
64668;BME280;51077;42.716;23.344;2022-12-07T06:44:40;95312.16;;;7.61;65.89
64668;BME280;51077;42.716;23.344;2022-12-07T06:47:05;95304.97;;;7.64;65.33
64668;BME280;51077;42.716;23.344;2022-12-07T06:49:33;95309.47;;;7.67;65.66
64668;BME280;51077;42.716;23.344;2022-12-07T06:51:59;95306.47;;;7.70;65.41
64668;BME280;51077;42.716;23.344;2022-12-07T06:54:24;95304.25;;;7.74;65.42
64668;BME280;51077;42.716;23.344;2022-12-07T06:56:50;95315.69;;;7.78;65.32
64668;BME280;51077;42.716;23.344;2022-12-07T06:59:15;95313.75;;;7.85;65.20
64668;BME280;51077;42.716;23.344;2022-12-07T07:01:40;95317.00;;;7.89;65.09
64668;BME280;51077;42.716;23.344;2022-12-07T07:04:06;95312.78;;;7.93;64.57
64668;BME280;51077;42.716;23.344;2022-12-07T07:06:31;95316.78;;;7.98;64.57
64668;BME280;51077;42.716;23.344;2022-12-07T07:08:57;95311.81;;;8.02;64.44
64668;BME280;51077;42.716;23.344;2022-12-07T07:11:22;95315.28;;;8.08;64.24
64668;BME280;51077;42.716;23.344;2022-12-07T07:13:47;95316.06;;;8.14;63.94
64668;BME280;51077;42.716;23.344;2022-12-07T07:16:13;95318.06;;;8.19;63.92
64668;BME280;51077;42.716;23.344;2022-12-07T07:18:38;95318.06;;;8.25;63.92
64668;BME280;51077;42.716;23.344;2022-12-07T07:21:04;95320.06;;;8.30;63.42
64668;BME280;51077;42.716;23.344;2022-12-07T07:23:30;95320.56;;;8.34;63.72
64668;BME280;51077;42.716;23.344;2022-12-07T07:25:55;95315.88;;;8.40;63.46
64668;BME280;51077;42.716;23.344;2022-12-07T07:28:21;95317.88;;;8.45;63.50
64668;BME280;51077;42.716;23.344;2022-12-07T07:30:46;95317.63;;;8.49;63.21
64668;BME280;51077;42.716;23.344;2022-12-07T07:33:12;95314.16;;;8.54;63.15
64668;BME280;51077;42.716;23.344;2022-12-07T07:35:38;95328.31;;;8.58;62.79
64668;BME280;51077;42.716;23.344;2022-12-07T07:38:05;95315.38;;;8.64;62.93
64668;BME280;51077;42.716;23.344;2022-12-07T07:40:31;95321.59;;;8.76;62.39
64668;BME280;51077;42.716;23.344;2022-12-07T07:42:57;95325.56;;;8.86;62.12
64668;BME280;51077;42.716;23.344;2022-12-07T07:45:24;95324.84;;;8.97;61.98
64668;BME280;51077;42.716;23.344;2022-12-07T07:47:50;95329.75;;;9.21;61.58
64668;BME280;51077;42.716;23.344;2022-12-07T07:50:17;95321.94;;;9.53;61.22
64668;BME280;51077;42.716;23.344;2022-12-07T07:52:43;95324.63;;;9.70;60.69
64668;BME280;51077;42.716;23.344;2022-12-07T07:55:08;95325.31;;;9.87;60.24
64668;BME280;51077;42.716;23.344;2022-12-07T07:57:38;95324.75;;;10.00;59.94
64668;BME280;51077;42.716;23.344;2022-12-07T08:00:09;95322.44;;;10.10;59.51
64668;BME280;51077;42.716;23.344;2022-12-07T08:02:35;95317.69;;;10.16;59.22
64668;BME280;51077;42.716;23.344;2022-12-07T08:05:00;95327.88;;;10.21;59.02
64668;BME280;51077;42.716;23.344;2022-12-07T08:07:27;95320.66;;;10.23;58.90
64668;BME280;51077;42.716;23.344;2022-12-07T08:09:53;95323.38;;;10.29;58.72
64668;BME280;51077;42.716;23.344;2022-12-07T08:12:19;95327.09;;;10.31;58.73
64668;BME280;51077;42.716;23.344;2022-12-07T08:14:44;95323.13;;;10.32;58.89
64668;BME280;51077;42.716;23.344;2022-12-07T08:17:09;95318.13;;;10.31;58.87
64668;BME280;51077;42.716;23.344;2022-12-07T08:19:35;95326.59;;;10.33;58.60
64668;BME280;51077;42.716;23.344;2022-12-07T08:22:00;95324.06;;;10.35;58.79
64668;BME280;51077;42.716;23.344;2022-12-07T08:24:26;95318.09;;;10.37;58.79
64668;BME280;51077;42.716;23.344;2022-12-07T08:26:51;95320.31;;;10.38;58.54
64668;BME280;51077;42.716;23.344;2022-12-07T08:29:17;95315.56;;;10.39;58.49
64668;BME280;51077;42.716;23.344;2022-12-07T08:31:43;95315.06;;;10.40;58.55
64668;BME280;51077;42.716;23.344;2022-12-07T08:34:10;95324.06;;;10.41;58.56
64668;BME280;51077;42.716;23.344;2022-12-07T08:36:36;95326.03;;;10.40;58.42
64668;BME280;51077;42.716;23.344;2022-12-07T08:39:02;95322.06;;;10.41;58.64
64668;BME280;51077;42.716;23.344;2022-12-07T08:41:27;95319.53;;;10.43;58.45
64668;BME280;51077;42.716;23.344;2022-12-07T08:43:52;95318.28;;;10.44;58.39
64668;BME280;51077;42.716;23.344;2022-12-07T08:46:27;95318.28;;;10.44;58.51
64668;BME280;51077;42.716;23.344;2022-12-07T08:49:03;95307.31;;;10.44;58.64
64668;BME280;51077;42.716;23.344;2022-12-07T08:51:29;95311.09;;;10.41;58.62
64668;BME280;51077;42.716;23.344;2022-12-07T08:53:55;95305.81;;;10.43;58.51
64668;BME280;51077;42.716;23.344;2022-12-07T08:56:22;95304.56;;;10.44;58.35
64668;BME280;51077;42.716;23.344;2022-12-07T08:58:48;95299.06;;;10.44;58.38
64668;BME280;51077;42.716;23.344;2022-12-07T09:01:14;95302.06;;;10.46;58.33
64668;BME280;51077;42.716;23.344;2022-12-07T09:03:39;95290.28;;;10.51;58.37
64668;BME280;51077;42.716;23.344;2022-12-07T09:06:06;95293.00;;;10.57;58.38
64668;BME280;51077;42.716;23.344;2022-12-07T09:08:39;95282.22;;;10.65;57.98
64668;BME280;51077;42.716;23.344;2022-12-07T09:11:07;95277.41;;;10.71;58.09
64668;BME280;51077;42.716;23.344;2022-12-07T09:13:32;95280.88;;;10.77;57.84
64668;BME280;51077;42.716;23.344;2022-12-07T09:15:58;95274.81;;;10.84;57.73
64668;BME280;51077;42.716;23.344;2022-12-07T09:18:23;95273.75;;;10.93;57.54
64668;BME280;51077;42.716;23.344;2022-12-07T09:20:50;95273.69;;;10.98;57.19
64668;BME280;51077;42.716;23.344;2022-12-07T09:23:15;95272.06;;;11.08;57.14
64668;BME280;51077;42.716;23.344;2022-12-07T09:25:41;95280.50;;;11.16;56.77
64668;BME280;51077;42.716;23.344;2022-12-07T09:28:06;95280.13;;;11.25;56.83
64668;BME280;51077;42.716;23.344;2022-12-07T09:30:32;95281.28;;;11.36;56.57
64668;BME280;51077;42.716;23.344;2022-12-07T09:32:57;95270.25;;;11.41;56.43
64668;BME280;51077;42.716;23.344;2022-12-07T09:35:24;95262.13;;;11.49;56.17
64668;BME280;51077;42.716;23.344;2022-12-07T09:37:49;95266.06;;;11.53;55.93
64668;BME280;51077;42.716;23.344;2022-12-07T09:40:16;95257.78;;;11.59;56.08
64668;BME280;51077;42.716;23.344;2022-12-07T09:42:46;95252.00;;;11.63;55.97
64668;BME280;51077;42.716;23.344;2022-12-07T09:45:18;95248.72;;;11.64;55.76
64668;BME280;51077;42.716;23.344;2022-12-07T09:47:45;95242.69;;;11.66;55.57
64668;BME280;51077;42.716;23.344;2022-12-07T09:50:16;95250.13;;;11.71;55.56
64668;BME280;51077;42.716;23.344;2022-12-07T09:52:45;95244.56;;;11.76;55.44
64668;BME280;51077;42.716;23.344;2022-12-07T09:55:15;95246.22;;;11.85;55.44
64668;BME280;51077;42.716;23.344;2022-12-07T09:57:42;95245.84;;;11.94;55.34
64668;BME280;51077;42.716;23.344;2022-12-07T10:00:26;95234.56;;;11.98;54.95
64668;BME280;51077;42.716;23.344;2022-12-07T10:05:24;95225.81;;;12.13;54.77
64668;BME280;51077;42.716;23.344;2022-12-07T10:07:51;95233.69;;;12.22;54.66
64668;BME280;51077;42.716;23.344;2022-12-07T10:10:31;95235.53;;;12.32;54.41
64668;BME280;51077;42.716;23.344;2022-12-07T10:13:00;95226.44;;;12.38;53.89
64668;BME280;51077;42.716;23.344;2022-12-07T10:15:57;95220.66;;;12.41;54.01
64668;BME280;51077;42.716;23.344;2022-12-07T10:24:05;95203.72;;;12.50;53.72
64668;BME280;51077;42.716;23.344;2022-12-07T10:31:57;95188.84;;;12.72;53.30
64668;BME280;51077;42.716;23.344;2022-12-07T10:34:32;95188.72;;;12.78;52.93
64668;BME280;51077;42.716;23.344;2022-12-07T10:37:20;95180.47;;;12.78;53.14
64668;BME280;51077;42.716;23.344;2022-12-07T10:39:54;95179.50;;;12.75;53.04
64668;BME280;51077;42.716;23.344;2022-12-07T10:42:25;95178.75;;;12.75;53.03
64668;BME280;51077;42.716;23.344;2022-12-07T10:45:13;95176.84;;;12.83;52.99
64668;BME280;51077;42.716;23.344;2022-12-07T11:04:55;95163.31;;;12.98;52.57
64668;BME280;51077;42.716;23.344;2022-12-07T11:08:13;95149.75;;;13.00;52.66
64668;BME280;51077;42.716;23.344;2022-12-07T11:13:23;95144.97;;;13.27;52.20
64668;BME280;51077;42.716;23.344;2022-12-07T11:16:13;95147.69;;;13.54;51.46
64668;BME280;51077;42.716;23.344;2022-12-07T11:21:45;95137.72;;;14.06;50.51
64668;BME280;51077;42.716;23.344;2022-12-07T11:24:31;95137.66;;;14.19;50.25
64668;BME280;51077;42.716;23.344;2022-12-07T11:27:28;95122.78;;;14.22;49.93
64668;BME280;51077;42.716;23.344;2022-12-07T11:30:09;95119.34;;;14.29;49.58
64668;BME280;51077;42.716;23.344;2022-12-07T11:32:55;95117.38;;;14.58;49.14
64668;BME280;51077;42.716;23.344;2022-12-07T11:37:49;95091.06;;;15.38;47.94
64668;BME280;51077;42.716;23.344;2022-12-07T11:40:33;95102.38;;;15.55;47.57
64668;BME280;51077;42.716;23.344;2022-12-07T11:43:09;95103.38;;;15.88;46.75
64668;BME280;51077;42.716;23.344;2022-12-07T11:45:37;95104.16;;;16.27;46.05
64668;BME280;51077;42.716;23.344;2022-12-07T11:48:14;95105.41;;;16.79;45.26
64668;BME280;51077;42.716;23.344;2022-12-07T11:50:48;95113.03;;;17.34;44.56
64668;BME280;51077;42.716;23.344;2022-12-07T11:53:21;95097.28;;;17.85;43.49
64668;BME280;51077;42.716;23.344;2022-12-07T11:56:08;95100.41;;;18.39;42.67
64668;BME280;51077;42.716;23.344;2022-12-07T12:04:16;95084.81;;;19.92;40.14
64668;BME280;51077;42.716;23.344;2022-12-07T12:06:40;95083.31;;;20.18;39.92
64668;BME280;51077;42.716;23.344;2022-12-07T12:09:15;95069.31;;;20.45;39.30
64668;BME280;51077;42.716;23.344;2022-12-07T12:17:35;95068.25;;;20.87;38.54
64668;BME280;51077;42.716;23.344;2022-12-07T12:20:25;95068.25;;;21.06;38.49
64668;BME280;51077;42.716;23.344;2022-12-07T12:25:25;95063.22;;;21.63;37.83
64668;BME280;51077;42.716;23.344;2022-12-07T12:27:53;95050.25;;;21.68;37.75
64668;BME280;51077;42.716;23.344;2022-12-07T12:30:39;95049.56;;;21.57;37.41
64668;BME280;51077;42.716;23.344;2022-12-07T12:33:28;95053.13;;;21.39;37.59
64668;BME280;51077;42.716;23.344;2022-12-07T12:47:01;95025.19;;;20.51;39.09
64668;BME280;51077;42.716;23.344;2022-12-07T12:49:40;95027.75;;;20.30;39.47
64668;BME280;51077;42.716;23.344;2022-12-07T12:57:34;95025.38;;;19.53;40.61
64668;BME280;51077;42.716;23.344;2022-12-07T13:00:15;95025.44;;;19.36;40.99
64668;BME280;51077;42.716;23.344;2022-12-07T13:10:27;95027.63;;;18.93;41.85
64668;BME280;51077;42.716;23.344;2022-12-07T13:15:35;95032.50;;;19.19;41.38
64668;BME280;51077;42.716;23.344;2022-12-07T13:18:04;95032.34;;;19.44;41.14
64668;BME280;51077;42.716;23.344;2022-12-07T13:20:55;95030.88;;;19.61;40.77
64668;BME280;51077;42.716;23.344;2022-12-07T13:26:22;95024.69;;;19.89;40.66
64668;BME280;51077;42.716;23.344;2022-12-07T13:34:29;95023.50;;;20.29;39.48
64668;BME280;51077;42.716;23.344;2022-12-07T13:36:55;95017.66;;;20.34;39.44
64668;BME280;51077;42.716;23.344;2022-12-07T13:39:24;95016.03;;;20.41;39.10
64668;BME280;51077;42.716;23.344;2022-12-07T13:42:08;95012.41;;;20.48;39.12
64668;BME280;51077;42.716;23.344;2022-12-07T13:44:40;95010.53;;;20.51;39.06
64668;BME280;51077;42.716;23.344;2022-12-07T13:47:13;95012.72;;;20.52;38.68
64668;BME280;51077;42.716;23.344;2022-12-07T13:49:55;95015.03;;;20.46;39.01
64668;BME280;51077;42.716;23.344;2022-12-07T13:52:28;95009.13;;;20.32;39.26
64668;BME280;51077;42.716;23.344;2022-12-07T13:57:33;95009.81;;;20.14;39.72
64668;BME280;51077;42.716;23.344;2022-12-07T14:00:01;95011.44;;;20.07;39.72
64668;BME280;51077;42.716;23.344;2022-12-07T14:02:31;95006.13;;;20.01;39.86
64668;BME280;51077;42.716;23.344;2022-12-07T14:05:12;95009.88;;;19.87;39.97
64668;BME280;51077;42.716;23.344;2022-12-07T14:10:28;95009.34;;;19.61;40.62
64668;BME280;51077;42.716;23.344;2022-12-07T14:12:55;95009.81;;;19.50;40.74
64668;BME280;51077;42.716;23.344;2022-12-07T14:15:23;95013.16;;;19.39;40.91
64668;BME280;51077;42.716;23.344;2022-12-07T14:17:52;95007.34;;;19.27;41.23
64668;BME280;51077;42.716;23.344;2022-12-07T14:20:38;95008.53;;;19.06;41.47
64668;BME280;51077;42.716;23.344;2022-12-07T14:23:06;95011.34;;;18.89;41.83
64668;BME280;51077;42.716;23.344;2022-12-07T14:25:51;95016.91;;;18.72;42.18
64668;BME280;51077;42.716;23.344;2022-12-07T14:28:31;95020.81;;;18.51;42.53
64668;BME280;51077;42.716;23.344;2022-12-07T14:30:57;95015.63;;;18.30;43.10
64668;BME280;51077;42.716;23.344;2022-12-07T14:33:23;95020.81;;;18.09;43.56
64668;BME280;51077;42.716;23.344;2022-12-07T14:35:49;95017.66;;;17.88;43.72
64668;BME280;51077;42.716;23.344;2022-12-07T14:38:15;95017.22;;;17.66;44.10
64668;BME280;51077;42.716;23.344;2022-12-07T14:40:41;95018.84;;;17.44;44.40
64668;BME280;51077;42.716;23.344;2022-12-07T14:43:12;95021.56;;;17.19;44.70
64668;BME280;51077;42.716;23.344;2022-12-07T14:45:38;95024.25;;;16.94;45.33
64668;BME280;51077;42.716;23.344;2022-12-07T14:48:05;95022.09;;;16.70;45.46
64668;BME280;51077;42.716;23.344;2022-12-07T14:50:36;95016.41;;;16.45;46.00
64668;BME280;51077;42.716;23.344;2022-12-07T14:53:18;95024.59;;;16.20;46.42
64668;BME280;51077;42.716;23.344;2022-12-07T14:55:47;95024.03;;;15.91;47.12
64668;BME280;51077;42.716;23.344;2022-12-07T14:58:14;95023.66;;;15.71;47.45
64668;BME280;51077;42.716;23.344;2022-12-07T15:00:40;95016.78;;;15.49;47.98
64668;BME280;51077;42.716;23.344;2022-12-07T15:03:06;95022.47;;;15.28;48.24
64668;BME280;51077;42.716;23.344;2022-12-07T15:05:32;95020.19;;;15.12;48.65
64668;BME280;51077;42.716;23.344;2022-12-07T15:07:58;95023.25;;;14.93;49.20